createdAt,value
2023-05-17T00:01:01.281Z,93.00
2023-05-17T00:03:48.501Z,93.00
2023-05-17T00:06:36.170Z,92.80
2023-05-17T00:09:23.273Z,92.70
2023-05-17T00:12:11.633Z,92.60
2023-05-17T00:14:58.920Z,92.70
2023-05-17T00:17:46.187Z,92.60
2023-05-17T00:20:34.757Z,92.60
2023-05-17T00:23:21.952Z,92.60
2023-05-17T00:26:09.300Z,92.60
2023-05-17T00:28:58.077Z,92.40
2023-05-17T00:31:45.088Z,92.40
2023-05-17T00:34:32.008Z,92.50
2023-05-17T00:37:18.975Z,92.40
2023-05-17T00:40:06.616Z,92.10
2023-05-17T00:42:53.519Z,92.10
2023-05-17T00:45:44.839Z,92.00
2023-05-17T00:48:32.349Z,91.90
2023-05-17T00:51:21.462Z,91.90
2023-05-17T00:54:08.448Z,92.00
2023-05-17T00:56:57.192Z,92.00
2023-05-17T00:59:45.882Z,92.00
2023-05-17T01:02:34.638Z,92.00
2023-05-17T01:05:22.227Z,92.00
2023-05-17T01:08:09.469Z,92.10
2023-05-17T01:11:09.320Z,91.90
2023-05-17T01:14:03.790Z,92.00
2023-05-17T01:16:57.167Z,91.80
2023-05-17T01:19:58.900Z,91.70
2023-05-17T01:22:53.310Z,91.80
2023-05-17T01:25:56.938Z,91.80
2023-05-17T01:28:48.429Z,91.80
2023-05-17T01:31:37.274Z,91.70
2023-05-17T01:34:27.694Z,91.90
2023-05-17T01:37:14.949Z,91.80
2023-05-17T01:40:01.934Z,91.80
2023-05-17T01:42:54.394Z,91.90
2023-05-17T01:45:54.617Z,91.80
2023-05-17T01:48:50.798Z,91.80
2023-05-17T01:51:46.167Z,91.80
2023-05-17T01:54:38.542Z,92.00
2023-05-17T01:57:33.016Z,92.00
2023-05-17T02:00:23.737Z,92.10
2023-05-17T02:03:19.183Z,92.10
2023-05-17T02:06:08.900Z,92.00
2023-05-17T02:08:56.060Z,92.10
2023-05-17T02:11:43.310Z,92.30
2023-05-17T02:14:30.353Z,92.40
2023-05-17T02:17:17.749Z,92.40
2023-05-17T02:20:06.405Z,92.30
2023-05-17T02:22:53.429Z,92.40
2023-05-17T02:25:40.744Z,92.50
2023-05-17T02:28:28.821Z,92.50
2023-05-17T02:31:15.693Z,92.60
2023-05-17T02:34:02.838Z,92.60
2023-05-17T02:36:52.660Z,92.70
2023-05-17T02:39:39.741Z,92.80
2023-05-17T02:42:26.818Z,92.70
2023-05-17T02:45:16.201Z,92.60
2023-05-17T02:48:03.336Z,92.80
2023-05-17T02:50:51.392Z,93.10
2023-05-17T02:53:40.097Z,92.60
2023-05-17T02:56:27.584Z,92.70
2023-05-17T02:59:14.609Z,92.60
2023-05-17T03:02:03.219Z,92.40
2023-05-17T03:04:50.692Z,92.40
2023-05-17T03:07:37.845Z,92.40
2023-05-17T03:10:26.475Z,92.30
2023-05-17T03:13:13.743Z,92.30
2023-05-17T03:16:00.824Z,92.20
2023-05-17T03:18:49.066Z,92.10
2023-05-17T03:21:36.395Z,92.20
2023-05-17T03:24:24.589Z,92.10
2023-05-17T03:27:13.397Z,92.10
2023-05-17T03:30:00.624Z,92.10
2023-05-17T03:32:48.229Z,92.00
2023-05-17T03:35:35.589Z,92.00
2023-05-17T03:38:23.522Z,91.80
2023-05-17T03:41:13.415Z,91.80
2023-05-17T03:44:03.339Z,91.60
2023-05-17T03:46:51.818Z,91.50
2023-05-17T03:49:39.899Z,91.60
2023-05-17T03:52:27.516Z,91.60
2023-05-17T03:55:14.391Z,91.60
2023-05-17T03:58:01.802Z,91.40
2023-05-17T04:00:51.665Z,91.20
2023-05-17T04:03:40.001Z,91.30
2023-05-17T04:06:27.468Z,91.20
2023-05-17T04:09:15.744Z,91.00
2023-05-17T04:12:02.728Z,91.10
2023-05-17T04:14:50.606Z,91.10
2023-05-17T04:17:39.903Z,91.00
2023-05-17T04:20:27.349Z,90.80
2023-05-17T04:23:16.328Z,90.70
2023-05-17T04:26:04.378Z,90.90
2023-05-17T04:28:54.089Z,90.80
2023-05-17T04:31:43.015Z,90.80
2023-05-17T04:34:32.806Z,90.80
2023-05-17T04:37:21.425Z,90.40
2023-05-17T04:40:13.033Z,90.50
2023-05-17T04:43:00.198Z,90.50
2023-05-17T04:45:47.427Z,90.50
2023-05-17T04:48:35.210Z,90.50
2023-05-17T04:51:24.323Z,90.30
2023-05-17T04:54:12.082Z,90.20
2023-05-17T04:57:00.311Z,90.20
2023-05-17T05:00:10.120Z,90.10
2023-05-17T05:02:59.621Z,90.20
2023-05-17T05:05:46.628Z,90.20
2023-05-17T05:08:37.698Z,90.20
2023-05-17T05:11:27.875Z,90.00
2023-05-17T05:14:15.122Z,90.20
2023-05-17T05:17:03.499Z,89.70
2023-05-17T05:19:50.855Z,89.30
2023-05-17T05:22:38.477Z,89.00
2023-05-17T05:25:27.970Z,88.40
2023-05-17T05:28:15.884Z,88.30
2023-05-17T05:31:03.621Z,88.30
2023-05-17T05:34:01.179Z,87.80
2023-05-17T05:36:49.096Z,87.80
2023-05-17T05:39:36.881Z,87.20
2023-05-17T05:42:25.755Z,86.50
2023-05-17T05:45:13.167Z,85.90
2023-05-17T05:48:04.463Z,85.50
2023-05-17T05:50:52.613Z,85.70
2023-05-17T05:53:40.046Z,85.10
2023-05-17T05:56:28.382Z,84.90
2023-05-17T05:59:17.247Z,84.70
2023-05-17T06:02:05.653Z,83.80
2023-05-17T06:04:53.025Z,83.70
2023-05-17T06:07:40.227Z,82.90
2023-05-17T06:10:27.671Z,82.10
2023-05-17T06:13:14.998Z,82.30
2023-05-17T06:16:03.822Z,81.40
2023-05-17T06:18:51.443Z,80.90
2023-05-17T06:21:38.862Z,81.20
2023-05-17T06:24:26.237Z,80.50
2023-05-17T06:27:14.049Z,80.10
2023-05-17T06:30:01.705Z,80.10
2023-05-17T06:32:50.989Z,79.70
2023-05-17T06:35:54.680Z,79.30
2023-05-17T06:38:43.070Z,77.90
2023-05-17T06:41:30.526Z,77.60
2023-05-17T06:44:17.491Z,76.40
2023-05-17T06:47:04.516Z,77.00
2023-05-17T06:49:53.199Z,75.80
2023-05-17T06:52:40.648Z,76.80
2023-05-17T06:55:29.561Z,76.70
2023-05-17T06:58:17.993Z,75.70
2023-05-17T07:01:06.058Z,74.00
2023-05-17T07:03:53.488Z,73.70
2023-05-17T07:06:42.603Z,73.10
2023-05-17T07:09:30.532Z,72.30
2023-05-17T07:12:17.765Z,72.40
2023-05-17T07:15:04.982Z,72.20
2023-05-17T07:17:52.526Z,70.90
2023-05-17T07:20:40.195Z,70.50
2023-05-17T07:23:28.797Z,70.40
2023-05-17T07:26:16.058Z,70.20
2023-05-17T07:29:03.485Z,69.30
2023-05-17T07:31:50.607Z,67.80
2023-05-17T07:34:38.355Z,66.80
2023-05-17T07:37:25.914Z,63.80
2023-05-17T07:40:14.724Z,62.50
2023-05-17T07:43:02.247Z,60.50
2023-05-17T07:45:49.404Z,61.60
2023-05-17T07:48:37.525Z,62.60
2023-05-17T07:51:24.800Z,62.90
2023-05-17T07:54:14.523Z,63.30
2023-05-17T07:57:03.301Z,63.00
2023-05-17T07:59:50.430Z,60.40
2023-05-17T08:02:38.104Z,58.10
2023-05-17T08:05:25.644Z,55.20
2023-05-17T08:08:12.579Z,55.40
2023-05-17T08:10:59.888Z,55.80
2023-05-17T08:13:48.360Z,54.20
2023-05-17T08:16:36.115Z,60.10
2023-05-17T08:19:23.558Z,56.20
2023-05-17T08:22:11.735Z,58.30
2023-05-17T08:24:58.873Z,58.40
2023-05-17T08:30:35.647Z,54.10
2023-05-17T08:33:24.462Z,54.80
2023-05-17T08:36:11.535Z,52.70
2023-05-17T08:38:58.700Z,52.00
2023-05-17T08:41:47.957Z,51.20
2023-05-17T08:44:35.009Z,54.40
2023-05-17T08:47:30.203Z,53.80
2023-05-17T08:50:17.699Z,50.20
2023-05-17T08:53:05.601Z,46.50
2023-05-17T08:55:54.851Z,45.00
2023-05-17T08:58:56.519Z,44.60
2023-05-17T09:01:46.129Z,44.60
2023-05-17T09:04:35.207Z,43.50
2023-05-17T09:07:23.062Z,40.80
2023-05-17T09:10:11.290Z,40.50
2023-05-17T09:12:58.402Z,39.10
2023-05-17T09:15:48.582Z,38.10
2023-05-17T09:18:36.149Z,36.50
2023-05-17T09:21:25.443Z,37.90
2023-05-17T09:24:12.634Z,37.00
2023-05-17T09:27:03.876Z,36.00
2023-05-17T09:29:50.933Z,37.40
2023-05-17T09:32:44.480Z,40.50
2023-05-17T09:35:32.785Z,41.80
2023-05-17T09:38:27.632Z,39.90
2023-05-17T09:41:14.655Z,37.80
2023-05-17T09:44:03.307Z,38.90
2023-05-17T09:46:50.735Z,40.20
2023-05-17T09:49:37.872Z,39.10
2023-05-17T09:52:25.685Z,43.20
2023-05-17T09:55:15.421Z,44.80
2023-05-17T09:58:04.924Z,43.70
2023-05-17T10:00:54.756Z,43.60
2023-05-17T10:03:42.318Z,43.60
2023-05-17T10:06:45.390Z,44.60
2023-05-17T10:09:38.439Z,47.40
2023-05-17T10:12:48.588Z,49.30
2023-05-17T10:15:38.686Z,50.00
2023-05-17T10:18:27.540Z,49.90
2023-05-17T10:21:16.491Z,50.10
2023-05-17T10:24:04.584Z,51.20
2023-05-17T10:26:52.498Z,50.70
2023-05-17T10:29:42.566Z,51.50
2023-05-17T10:32:30.970Z,50.90
2023-05-17T10:35:18.750Z,52.20
2023-05-17T10:38:06.036Z,53.40
2023-05-17T10:40:54.260Z,53.10
2023-05-17T10:43:43.650Z,53.00
2023-05-17T10:46:32.569Z,53.80
2023-05-17T10:49:24.133Z,53.40
2023-05-17T10:52:14.503Z,52.80
2023-05-17T10:55:02.138Z,51.20
2023-05-17T10:58:16.078Z,51.70
2023-05-17T11:01:07.330Z,50.60
2023-05-17T11:03:58.037Z,50.50
2023-05-17T11:06:45.588Z,50.50
2023-05-17T11:09:34.009Z,51.10
2023-05-17T11:12:33.904Z,51.80
2023-05-17T11:15:26.543Z,51.40
2023-05-17T11:18:29.182Z,50.70
2023-05-17T11:21:19.854Z,50.20
2023-05-17T11:24:08.756Z,52.30
2023-05-17T11:26:56.768Z,52.20
2023-05-17T11:29:48.095Z,51.10
2023-05-17T11:32:35.284Z,49.30
2023-05-17T11:35:27.417Z,48.90
2023-05-17T11:38:19.566Z,49.80
2023-05-17T11:44:11.121Z,50.00
2023-05-17T11:47:07.112Z,50.20
2023-05-17T11:49:56.705Z,50.80
2023-05-17T11:52:44.922Z,51.40
2023-05-17T11:55:33.890Z,52.40
2023-05-17T11:58:25.020Z,52.40
2023-05-17T12:01:12.235Z,51.30
2023-05-17T12:03:59.971Z,50.30
2023-05-17T12:06:47.161Z,49.90
2023-05-17T12:09:35.118Z,49.80
2023-05-17T12:12:23.681Z,51.20
2023-05-17T12:15:12.486Z,51.50
2023-05-17T12:17:59.830Z,52.20
2023-05-17T12:21:01.931Z,50.70
2023-05-17T12:23:52.971Z,51.50
2023-05-17T12:26:45.291Z,52.00
2023-05-17T12:29:33.575Z,51.70
2023-05-17T12:32:21.323Z,50.70
2023-05-17T12:35:11.794Z,49.30
2023-05-17T12:37:58.988Z,49.90
2023-05-17T12:40:47.043Z,49.80
2023-05-17T12:43:35.442Z,47.90
2023-05-17T12:46:25.603Z,48.20
2023-05-17T12:49:13.122Z,48.90
2023-05-17T12:52:06.412Z,48.80
2023-05-17T12:54:53.273Z,48.90
2023-05-17T12:57:40.343Z,50.70
2023-05-17T13:00:27.860Z,50.30
2023-05-17T13:03:16.907Z,49.00
2023-05-17T13:06:06.118Z,49.20
2023-05-17T13:09:00.867Z,46.80
2023-05-17T13:11:52.758Z,47.60
2023-05-17T13:14:45.326Z,48.10
2023-05-17T13:17:40.714Z,48.50
2023-05-17T13:20:29.664Z,48.40
2023-05-17T13:23:17.674Z,50.40
2023-05-17T13:26:04.887Z,50.60
2023-05-17T13:28:52.455Z,51.10
2023-05-17T13:31:41.717Z,50.40
2023-05-17T13:34:28.888Z,49.80
2023-05-17T13:37:17.068Z,49.30
2023-05-17T13:40:04.656Z,48.70
2023-05-17T13:42:54.780Z,49.10
2023-05-17T13:45:43.031Z,50.70
2023-05-17T13:48:30.015Z,49.30
2023-05-17T13:51:18.348Z,49.30
2023-05-17T13:54:07.757Z,48.30
2023-05-17T13:56:55.735Z,48.40
2023-05-17T13:59:45.669Z,48.60
2023-05-17T14:02:33.063Z,50.40
2023-05-17T14:05:20.601Z,49.50
2023-05-17T14:08:07.646Z,50.80
2023-05-17T14:10:56.539Z,50.20
2023-05-17T14:13:43.667Z,50.40
2023-05-17T14:16:31.299Z,50.10
2023-05-17T14:19:18.590Z,49.10
2023-05-17T14:22:05.748Z,48.50
2023-05-17T14:24:52.722Z,50.30
2023-05-17T14:27:41.048Z,50.10
2023-05-17T14:30:28.185Z,51.10
2023-05-17T14:33:15.691Z,50.90
2023-05-17T14:36:03.956Z,50.60
2023-05-17T14:38:51.061Z,51.30
2023-05-17T14:41:39.492Z,50.40
2023-05-17T14:44:28.276Z,51.20
2023-05-17T14:47:16.777Z,50.70
2023-05-17T14:50:17.567Z,52.10
2023-05-17T14:53:04.826Z,50.80
2023-05-17T14:55:52.641Z,51.00
2023-05-17T14:58:40.646Z,52.00
2023-05-17T15:01:29.425Z,52.20
2023-05-17T15:04:17.055Z,51.90
2023-05-17T15:07:04.420Z,52.30
2023-05-17T15:09:51.605Z,53.00
2023-05-17T15:12:39.711Z,51.90
2023-05-17T15:15:27.041Z,51.70
2023-05-17T15:18:16.028Z,52.80
2023-05-17T15:21:03.678Z,52.80
2023-05-17T15:23:51.349Z,52.30
2023-05-17T15:26:39.015Z,53.00
2023-05-17T15:29:25.979Z,54.20
2023-05-17T15:32:12.823Z,54.10
2023-05-17T15:35:01.234Z,54.40
2023-05-17T15:37:48.742Z,54.60
2023-05-17T15:40:35.808Z,54.70
2023-05-17T15:43:22.745Z,54.50
2023-05-17T15:46:10.138Z,54.60
2023-05-17T15:48:58.286Z,54.50
2023-05-17T15:51:46.722Z,53.60
2023-05-17T15:54:34.231Z,54.60
2023-05-17T15:57:21.520Z,54.50
2023-05-17T16:00:10.723Z,53.70
2023-05-17T16:02:57.872Z,53.40
2023-05-17T16:05:45.145Z,53.80
2023-05-17T16:08:33.843Z,54.40
2023-05-17T16:11:23.707Z,54.60
2023-05-17T16:14:10.612Z,54.60
2023-05-17T16:16:57.856Z,55.10
2023-05-17T16:19:44.973Z,54.90
2023-05-17T16:22:32.219Z,54.30
2023-05-17T16:25:22.104Z,54.40
2023-05-17T16:28:09.253Z,55.30
2023-05-17T16:30:56.881Z,55.30
2023-05-17T16:33:43.969Z,54.80
2023-05-17T16:36:31.149Z,55.60
2023-05-17T16:39:18.427Z,55.70
2023-05-17T16:42:07.478Z,55.80
2023-05-17T16:44:54.842Z,56.70
2023-05-17T16:47:42.078Z,58.30
2023-05-17T16:50:29.613Z,58.00
2023-05-17T16:53:17.345Z,58.20
2023-05-17T16:56:04.492Z,58.70
2023-05-17T16:58:53.472Z,58.90
2023-05-17T17:01:40.954Z,59.30
2023-05-17T17:04:28.213Z,59.90
2023-05-17T17:07:15.638Z,60.00
2023-05-17T17:10:02.659Z,60.40
2023-05-17T17:12:50.550Z,59.80
2023-05-17T17:15:39.022Z,60.80
2023-05-17T17:18:26.225Z,60.60
2023-05-17T17:21:13.492Z,60.40
2023-05-17T17:24:03.086Z,60.30
2023-05-17T17:26:50.353Z,60.20
2023-05-17T17:29:37.560Z,61.10
2023-05-17T17:32:27.297Z,61.80
2023-05-17T17:35:14.125Z,61.90
2023-05-17T17:38:03.326Z,62.10
2023-05-17T17:40:50.640Z,62.40
2023-05-17T17:43:37.791Z,61.70
2023-05-17T17:46:26.550Z,62.40
2023-05-17T17:49:15.562Z,63.00
2023-05-17T17:52:02.641Z,62.50
2023-05-17T17:54:49.889Z,62.60
2023-05-17T18:59:27.315Z,66.10
2023-05-17T19:02:14.208Z,67.10
2023-05-17T19:05:01.211Z,67.70
2023-05-17T19:07:48.234Z,68.10
2023-05-17T19:10:35.317Z,68.30
2023-05-17T19:13:23.841Z,68.80
2023-05-17T19:16:10.808Z,68.60
2023-05-17T19:18:57.648Z,69.10
2023-05-17T19:21:44.735Z,69.10
2023-05-17T19:24:32.099Z,69.10
2023-05-17T19:27:19.902Z,69.60
2023-05-17T19:30:10.043Z,69.60
2023-05-17T19:32:57.090Z,69.90
2023-05-17T19:35:44.406Z,70.40
2023-05-17T19:38:33.465Z,70.40
2023-05-17T19:41:20.563Z,70.60
2023-05-17T19:44:07.875Z,70.60
2023-05-17T19:46:56.303Z,70.80
2023-05-17T19:49:43.444Z,71.20
2023-05-17T19:52:30.566Z,71.50
2023-05-17T19:55:22.182Z,71.70
2023-05-17T19:58:09.342Z,71.80
2023-05-17T20:00:56.512Z,72.30
2023-05-17T20:03:45.141Z,72.10
2023-05-17T20:06:32.137Z,72.10
2023-05-17T20:09:19.141Z,72.30
2023-05-17T20:12:07.234Z,73.10
2023-05-17T20:14:55.226Z,72.70
2023-05-17T20:17:42.394Z,72.80
2023-05-17T20:20:31.145Z,72.80
2023-05-17T20:23:18.150Z,73.30
2023-05-17T20:26:05.970Z,73.20
2023-05-17T20:28:53.569Z,73.20
2023-05-17T20:31:41.202Z,73.10
2023-05-17T20:34:29.401Z,73.20
2023-05-17T20:37:17.921Z,73.60
2023-05-17T20:40:08.975Z,73.80
2023-05-17T20:42:56.794Z,74.00
2023-05-17T20:45:46.151Z,74.20
2023-05-17T20:48:32.801Z,74.30
2023-05-17T20:51:19.770Z,74.50
2023-05-17T20:54:08.896Z,74.50
2023-05-17T20:56:55.858Z,74.90
2023-05-17T20:59:42.815Z,75.20
2023-05-17T21:02:30.055Z,74.90
2023-05-17T21:05:17.439Z,75.10
2023-05-17T21:08:04.470Z,76.20
2023-05-17T21:10:52.959Z,75.70
2023-05-17T21:13:40.425Z,75.50
2023-05-17T21:16:27.756Z,75.50
2023-05-17T21:19:14.848Z,75.80
2023-05-17T21:22:01.984Z,75.90
2023-05-17T21:24:50.796Z,75.80
2023-05-17T21:27:39.729Z,76.00
2023-05-17T21:30:26.634Z,75.90
2023-05-17T21:33:14.072Z,76.10
2023-05-17T21:36:01.061Z,76.40
2023-05-17T21:38:48.003Z,76.50
2023-05-17T21:41:35.384Z,77.30
2023-05-17T21:44:23.876Z,76.80
2023-05-17T21:47:11.174Z,77.30
2023-05-17T21:49:58.365Z,76.70
2023-05-17T21:52:45.515Z,77.80
2023-05-17T21:55:41.236Z,77.70
2023-05-17T21:58:38.517Z,78.40
2023-05-17T22:01:27.389Z,78.80
2023-05-17T22:04:14.451Z,78.40
2023-05-17T22:07:01.938Z,78.50
2023-05-17T22:09:49.139Z,78.60
2023-05-17T22:12:38.501Z,78.40
2023-05-17T22:15:26.337Z,78.50
2023-05-17T22:18:14.696Z,78.80
2023-05-17T22:21:02.228Z,78.60
2023-05-17T22:23:49.370Z,78.80
2023-05-17T22:26:36.423Z,78.60
2023-05-17T22:29:23.698Z,78.60
2023-05-17T22:32:11.707Z,78.80
2023-05-17T22:35:00.145Z,78.50
2023-05-17T22:37:47.334Z,78.40
2023-05-17T22:40:34.979Z,78.10
2023-05-17T22:43:22.506Z,78.20
2023-05-17T22:46:09.409Z,78.00
2023-05-17T22:48:58.037Z,78.80
2023-05-17T22:51:46.927Z,78.20
2023-05-17T22:54:34.430Z,78.30
2023-05-17T22:57:21.781Z,78.60
2023-05-17T23:00:11.489Z,78.40
2023-05-17T23:02:59.159Z,78.30
2023-05-17T23:05:47.138Z,78.40
2023-05-17T23:08:35.675Z,78.80
2023-05-17T23:11:23.009Z,78.80
2023-05-17T23:14:11.398Z,78.80
2023-05-17T23:17:02.507Z,79.10
2023-05-17T23:19:51.291Z,79.50
2023-05-17T23:22:39.339Z,79.70
2023-05-17T23:28:18.406Z,79.30
2023-05-17T23:31:05.969Z,80.60
2023-05-17T23:33:53.261Z,80.80
2023-05-17T23:36:41.144Z,81.40
2023-05-17T23:39:28.188Z,82.60
2023-05-17T23:42:16.465Z,80.60
2023-05-17T23:45:04.299Z,82.10
2023-05-17T23:47:51.754Z,82.50
2023-05-17T23:50:39.234Z,82.60
2023-05-17T23:56:18.232Z,99.90
2023-05-17T23:59:06.530Z,99.00
